Portada
METAR-TAF:

METAR-TAF

Aeroports :

Dalton Municipal Airport

Dalton, Geòrgia, Estats Units d'Amèrica

latitud: 34-43-18N, longitud: 084-52-09W, altitud: 216 m

Observació

L'informe es va fer fa 34 minuts, a les 06:55 UTC
Vent calma
Temperatura -2°C
Humitat 59%
Pressió 1030 hPa
Visibilitat: 16.1 km
Cel clar

METAR: KDNN 220655Z AUTO 00000KT 10SM CLR M02/M09 A3043 RMK AO2

Hora: 02:29 (07:29 UTC)


TAF: manca

Observacions i pronòstics meteorològics de més de 4000 aeroports (METAR i TAF).

Les estacions disponibles són els punts grocs i vermells al mapa.

Posi el ratolí al punt desitjat per veure el nom de l'estació.

Feu clic per veure les observacions i els pronòstics meteorològics.

Per canviar el mapa: feu clic els botons verds amb una creu de color negre per apropar; al botó verd amb un guió per allunyar la imatge; o en les fletxes verdes per a mapes adjacents.


METAR-TAF: